Time;durP1;ratioP1;P1;durP2;ratioP2;P2;SDS_P1;SDS_P2;PMS_P1;PMS_P2;Temp;Humidity;BMP_temperature;BMP_pressure;BME280_temperature;BME280_humidity;BME280_pressure;Samples;Min_cycle;Max_cycle;Signal;HPM_P1;HPM_P2
2024/03/08 00:00:12;;;;;;;46.97;30.87;;;;;;;;;;6213360;23;20165;-80
2024/03/08 00:02:47;;;;;;;46.10;30.33;;;;;;;;;;6212962;23;20200;-79
2024/03/08 00:05:15;;;;;;;46.20;30.83;;;;;;;;;;6212958;23;20224;-80
2024/03/08 00:07:43;;;;;;;48.50;31.97;;;;;;;;;;6188098;23;20221;-80
2024/03/08 00:10:11;;;;;;;44.87;30.37;;;;;;;;;;6214391;23;20216;-79
2024/03/08 00:12:44;;;;;;;45.27;30.33;;;;;;;;;;6224934;23;20207;-80
2024/03/08 00:15:16;;;;;;;44.93;30.37;;;;;;;;;;6217848;23;20169;-79
2024/03/08 00:17:46;;;;;;;48.63;31.63;;;;;;;;;;6241230;23;20240;-80
2024/03/08 00:20:14;;;;;;;47.83;31.50;;;;;;;;;;6242213;23;20172;-81
2024/03/08 00:22:44;;;;;;;49.47;31.60;;;;;;;;;;6243649;23;20156;-79
2024/03/08 00:25:14;;;;;;;48.70;31.90;;;;;;;;;;6215016;23;20189;-81
2024/03/08 00:27:42;;;;;;;49.23;31.40;;;;;;;;;;6243217;23;20223;-81
2024/03/08 00:30:14;;;;;;;48.50;31.30;;;;;;;;;;6216542;23;20161;-82
2024/03/08 00:32:41;;;;;;;49.83;31.27;;;;;;;;;;6215481;23;20175;-82
2024/03/08 00:35:14;;;;;;;46.57;31.40;;;;;;;;;;6214727;23;20179;-80
2024/03/08 00:37:42;;;;;;;44.10;30.33;;;;;;;;;;6190106;23;20242;-82
2024/03/08 00:40:12;;;;;;;50.40;31.47;;;;;;;;;;6214962;23;20161;-81
2024/03/08 00:42:41;;;;;;;46.53;31.67;;;;;;;;;;6241169;23;20232;-81
2024/03/08 00:45:10;;;;;;;45.20;30.90;;;;;;;;;;6241389;23;20165;-80
2024/03/08 00:47:37;;;;;;;45.37;30.27;;;;;;;;;;6215007;23;20193;-81
2024/03/08 00:50:05;;;;;;;49.37;31.87;;;;;;;;;;6243544;23;20165;-80
2024/03/08 00:52:35;;;;;;;47.07;31.23;;;;;;;;;;6216725;23;20171;-80
2024/03/08 00:55:02;;;;;;;47.50;32.07;;;;;;;;;;6243136;23;20175;-80
2024/03/08 00:57:29;;;;;;;49.73;32.43;;;;;;;;;;6215836;23;20173;-80
2024/03/08 00:59:57;;;;;;;48.83;31.03;;;;;;;;;;6242850;23;20161;-80
2024/03/08 01:02:25;;;;;;;47.80;31.40;;;;;;;;;;6216237;23;20172;-80
2024/03/08 01:04:53;;;;;;;46.70;31.80;;;;;;;;;;6242795;23;20615;-79
2024/03/08 01:07:20;;;;;;;47.97;32.50;;;;;;;;;;6241385;23;20181;-81
2024/03/08 01:09:47;;;;;;;47.27;31.43;;;;;;;;;;6242076;23;20173;-80
2024/03/08 01:12:17;;;;;;;49.23;31.73;;;;;;;;;;6241566;23;20189;-80
2024/03/08 01:14:44;;;;;;;50.27;32.80;;;;;;;;;;6242172;23;20176;-79
2024/03/08 01:17:12;;;;;;;46.93;31.53;;;;;;;;;;6241977;23;20161;-81
2024/03/08 01:19:40;;;;;;;52.27;34.27;;;;;;;;;;6242239;23;20603;-80
2024/03/08 01:22:07;;;;;;;49.60;32.30;;;;;;;;;;6241976;23;20196;-80
2024/03/08 01:24:34;;;;;;;51.60;32.83;;;;;;;;;;6242039;23;20175;-82
2024/03/08 01:27:02;;;;;;;53.13;33.53;;;;;;;;;;6242048;23;20234;-80
2024/03/08 01:29:30;;;;;;;52.90;33.53;;;;;;;;;;6241887;23;20175;-80
2024/03/08 01:31:57;;;;;;;52.90;33.77;;;;;;;;;;6242164;23;20171;-79
2024/03/08 01:34:24;;;;;;;51.17;34.13;;;;;;;;;;6241961;23;20192;-81
2024/03/08 01:36:51;;;;;;;50.57;33.40;;;;;;;;;;6241662;23;20164;-79
2024/03/08 01:39:21;;;;;;;52.10;32.97;;;;;;;;;;6241655;23;20165;-81
2024/03/08 01:41:49;;;;;;;54.50;34.47;;;;;;;;;;6241997;23;20169;-80
2024/03/08 01:44:17;;;;;;;53.90;33.93;;;;;;;;;;6241676;23;20176;-81
2024/03/08 01:46:45;;;;;;;50.10;33.63;;;;;;;;;;6241206;23;20207;-80
2024/03/08 01:49:12;;;;;;;55.47;33.67;;;;;;;;;;6214959;23;20227;-82
2024/03/08 01:51:40;;;;;;;51.53;33.70;;;;;;;;;;6241873;23;20177;-79
2024/03/08 01:54:12;;;;;;;52.67;33.27;;;;;;;;;;6215096;23;20172;-80
2024/03/08 01:56:40;;;;;;;54.37;34.07;;;;;;;;;;6215133;23;20511;-79
2024/03/08 01:59:08;;;;;;;54.20;35.03;;;;;;;;;;6241729;23;20214;-81
2024/03/08 02:01:36;;;;;;;54.80;33.47;;;;;;;;;;6214669;23;20165;-80
2024/03/08 02:04:05;;;;;;;56.13;34.53;;;;;;;;;;6215300;23;20165;-81
2024/03/08 02:06:39;;;;;;;55.80;34.40;;;;;;;;;;6243237;23;20264;-80
2024/03/08 02:09:06;;;;;;;56.23;34.63;;;;;;;;;;6243771;23;20153;-79
2024/03/08 02:11:35;;;;;;;55.53;34.27;;;;;;;;;;6243560;23;20683;-81
2024/03/08 02:14:06;;;;;;;54.70;33.87;;;;;;;;;;6186939;23;20300;-82
2024/03/08 02:16:33;;;;;;;58.63;36.43;;;;;;;;;;6212884;23;20320;-80
2024/03/08 02:19:01;;;;;;;55.13;34.13;;;;;;;;;;6211957;23;20161;-82
2024/03/08 02:21:29;;;;;;;52.77;32.93;;;;;;;;;;6213312;23;20192;-80
2024/03/08 02:23:59;;;;;;;56.73;35.07;;;;;;;;;;6211630;23;20628;-78
2024/03/08 02:26:27;;;;;;;55.80;34.67;;;;;;;;;;6212751;23;20192;-81
2024/03/08 02:28:54;;;;;;;58.20;35.53;;;;;;;;;;6213147;23;20200;-80
2024/03/08 02:31:21;;;;;;;52.27;33.37;;;;;;;;;;6186834;23;20172;-80
2024/03/08 02:33:50;;;;;;;54.10;33.23;;;;;;;;;;6212923;23;20189;-80
2024/03/08 02:36:17;;;;;;;56.63;34.73;;;;;;;;;;6213082;23;20240;-80
2024/03/08 02:38:45;;;;;;;56.20;34.87;;;;;;;;;;6211484;23;20162;-80
2024/03/08 02:41:12;;;;;;;55.80;35.23;;;;;;;;;;6211361;23;20169;-84
2024/03/08 02:43:40;;;;;;;54.33;34.93;;;;;;;;;;6187086;23;20505;-81
2024/03/08 02:46:07;;;;;;;57.60;35.37;;;;;;;;;;6211505;23;20173;-80
2024/03/08 02:48:35;;;;;;;53.53;35.13;;;;;;;;;;6212781;23;20172;-80
2024/03/08 02:51:03;;;;;;;53.73;34.40;;;;;;;;;;6212918;23;20166;-80
2024/03/08 02:53:35;;;;;;;57.73;35.53;;;;;;;;;;6212689;23;20150;-80
2024/03/08 02:56:04;;;;;;;54.30;34.57;;;;;;;;;;6212887;23;20177;-81
2024/03/08 02:58:32;;;;;;;57.87;35.40;;;;;;;;;;6211114;23;20239;-80
2024/03/08 03:01:03;;;;;;;58.67;34.87;;;;;;;;;;6212707;23;20168;-81
2024/03/08 03:03:34;;;;;;;54.90;34.83;;;;;;;;;;6211019;23;20633;-80
2024/03/08 03:06:02;;;;;;;54.33;35.10;;;;;;;;;;6212877;23;20221;-80
2024/03/08 03:08:29;;;;;;;58.70;35.70;;;;;;;;;;6212543;23;20165;-80
2024/03/08 03:10:56;;;;;;;54.07;35.47;;;;;;;;;;6211287;23;20170;-81
2024/03/08 03:13:24;;;;;;;56.37;36.67;;;;;;;;;;6231715;23;20196;-82
2024/03/08 03:15:54;;;;;;;56.20;35.47;;;;;;;;;;6242545;23;20579;-79
2024/03/08 03:18:23;;;;;;;57.00;35.80;;;;;;;;;;6190982;23;20169;-81
2024/03/08 03:20:51;;;;;;;56.00;34.60;;;;;;;;;;6216198;23;20171;-82
2024/03/08 03:23:20;;;;;;;53.63;35.87;;;;;;;;;;6242851;23;20161;-82
2024/03/08 03:25:48;;;;;;;55.20;35.37;;;;;;;;;;6216271;23;20701;-79
2024/03/08 03:28:17;;;;;;;57.67;35.47;;;;;;;;;;6242699;23;20636;-78
2024/03/08 03:30:46;;;;;;;57.73;36.37;;;;;;;;;;6243290;23;20592;-79
2024/03/08 03:33:16;;;;;;;59.17;36.20;;;;;;;;;;6242645;23;20236;-81
2024/03/08 03:35:45;;;;;;;58.43;35.50;;;;;;;;;;6242952;23;20623;-81
2024/03/08 03:38:14;;;;;;;55.93;35.00;;;;;;;;;;6216646;23;20179;-81
2024/03/08 03:40:45;;;;;;;55.50;34.93;;;;;;;;;;6242696;23;20165;-79
2024/03/08 03:43:13;;;;;;;55.13;34.77;;;;;;;;;;6242775;23;20169;-80
2024/03/08 03:45:41;;;;;;;54.17;34.97;;;;;;;;;;6243338;23;20214;-79
2024/03/08 03:48:12;;;;;;;58.63;35.07;;;;;;;;;;6216476;23;20184;-80
2024/03/08 03:50:41;;;;;;;56.60;35.17;;;;;;;;;;6242811;23;20156;-81
2024/03/08 03:53:08;;;;;;;57.87;34.67;;;;;;;;;;6242762;23;20173;-78
2024/03/08 03:55:38;;;;;;;56.87;35.60;;;;;;;;;;6242287;23;20181;-80
2024/03/08 03:58:09;;;;;;;57.77;36.20;;;;;;;;;;6215540;23;20165;-81
2024/03/08 04:00:38;;;;;;;56.90;34.80;;;;;;;;;;6242540;23;20177;-82
2024/03/08 04:03:07;;;;;;;57.40;35.13;;;;;;;;;;6242463;23;20184;-80
2024/03/08 04:05:35;;;;;;;56.53;36.83;;;;;;;;;;6242144;23;20172;-79
2024/03/08 04:08:03;;;;;;;62.20;38.87;;;;;;;;;;6241876;23;20189;-80
2024/03/08 04:10:30;;;;;;;61.27;36.40;;;;;;;;;;6215680;23;20177;-78
2024/03/08 04:13:01;;;;;;;58.27;36.43;;;;;;;;;;6241783;23;20193;-80
2024/03/08 04:15:30;;;;;;;60.57;37.63;;;;;;;;;;6215140;23;20175;-80
2024/03/08 04:17:57;;;;;;;58.97;36.10;;;;;;;;;;6241677;23;20247;-82
2024/03/08 04:20:25;;;;;;;57.47;36.30;;;;;;;;;;6242092;23;20164;-82
2024/03/08 04:22:52;;;;;;;58.17;36.23;;;;;;;;;;6241841;23;20169;-80
2024/03/08 04:25:20;;;;;;;57.83;35.77;;;;;;;;;;6242309;23;20185;-79
2024/03/08 04:27:49;;;;;;;54.70;35.50;;;;;;;;;;6241464;23;20189;-79
2024/03/08 04:30:17;;;;;;;56.07;35.80;;;;;;;;;;6214969;23;20175;-78
2024/03/08 04:32:45;;;;;;;59.50;36.40;;;;;;;;;;6214947;23;20199;-79
2024/03/08 04:35:13;;;;;;;59.47;36.47;;;;;;;;;;6241897;23;20207;-78
2024/03/08 04:37:42;;;;;;;61.27;36.43;;;;;;;;;;6241979;23;20169;-79
2024/03/08 04:40:11;;;;;;;61.70;36.80;;;;;;;;;;6215310;23;20666;-80
2024/03/08 04:42:39;;;;;;;60.57;35.83;;;;;;;;;;6242016;23;20161;-80
2024/03/08 04:45:10;;;;;;;57.70;35.43;;;;;;;;;;6216603;23;20152;-80
2024/03/08 04:47:39;;;;;;;59.07;35.33;;;;;;;;;;6241949;23;20188;-81
2024/03/08 04:50:08;;;;;;;59.47;36.90;;;;;;;;;;6241981;23;20172;-80
2024/03/08 04:52:35;;;;;;;63.10;36.80;;;;;;;;;;6241494;23;20172;-79
2024/03/08 04:55:06;;;;;;;61.73;37.03;;;;;;;;;;6241738;23;20165;-79
2024/03/08 04:57:33;;;;;;;56.37;35.90;;;;;;;;;;6214940;23;20612;-82
2024/03/08 05:00:03;;;;;;;58.13;36.17;;;;;;;;;;6241904;23;20165;-79
2024/03/08 05:02:33;;;;;;;59.23;35.73;;;;;;;;;;6241896;23;20244;-78
2024/03/08 05:05:00;;;;;;;60.80;36.00;;;;;;;;;;6241664;23;20171;-82
2024/03/08 05:07:28;;;;;;;64.30;37.10;;;;;;;;;;6241457;23;20247;-81
2024/03/08 05:09:56;;;;;;;59.03;36.43;;;;;;;;;;6241465;23;20165;-78
2024/03/08 05:12:23;;;;;;;61.67;36.90;;;;;;;;;;6241228;23;20192;-81
2024/03/08 05:14:50;;;;;;;60.50;35.20;;;;;;;;;;6241671;23;20169;-81
2024/03/08 05:17:17;;;;;;;54.63;35.23;;;;;;;;;;6241302;23;20157;-82
2024/03/08 05:19:48;;;;;;;57.50;36.37;;;;;;;;;;6241408;23;20164;-81
2024/03/08 05:22:17;;;;;;;59.27;35.90;;;;;;;;;;6241613;23;20149;-82
2024/03/08 05:24:45;;;;;;;56.00;35.67;;;;;;;;;;6214697;23;20173;-81
2024/03/08 05:27:13;;;;;;;59.83;36.50;;;;;;;;;;6214874;23;20189;-79
2024/03/08 05:29:42;;;;;;;55.87;36.70;;;;;;;;;;6241674;23;20619;-82
2024/03/08 05:32:09;;;;;;;58.53;37.40;;;;;;;;;;6215033;23;20172;-80
2024/03/08 05:34:37;;;;;;;60.13;37.17;;;;;;;;;;6214898;23;20184;-82
2024/03/08 05:37:07;;;;;;;59.47;36.27;;;;;;;;;;6241904;23;20161;-81
2024/03/08 05:39:34;;;;;;;58.50;36.27;;;;;;;;;;6242624;23;20161;-80
2024/03/08 05:42:01;;;;;;;57.23;35.90;;;;;;;;;;6192540;23;20191;-78
2024/03/08 05:44:30;;;;;;;56.17;35.47;;;;;;;;;;6243819;23;20168;-79
2024/03/08 05:47:00;;;;;;;60.40;36.63;;;;;;;;;;6243976;23;20400;-79
2024/03/08 05:49:31;;;;;;;53.77;34.47;;;;;;;;;;6243581;23;20172;-83
2024/03/08 05:52:00;;;;;;;59.50;36.77;;;;;;;;;;6216602;23;20577;-80
2024/03/08 05:54:27;;;;;;;53.87;35.33;;;;;;;;;;6243884;23;20161;-81
2024/03/08 05:56:55;;;;;;;60.20;36.20;;;;;;;;;;6216545;23;20278;-79
2024/03/08 05:59:23;;;;;;;52.97;35.60;;;;;;;;;;6243534;23;20172;-81
2024/03/08 06:01:54;;;;;;;56.50;35.53;;;;;;;;;;6243661;23;20464;-79
2024/03/08 06:04:22;;;;;;;55.73;36.57;;;;;;;;;;6243577;23;20236;-82
2024/03/08 06:06:51;;;;;;;55.97;35.43;;;;;;;;;;6243901;23;20253;-79
2024/03/08 06:09:23;;;;;;;56.50;36.33;;;;;;;;;;6217314;23;20657;-80
2024/03/08 06:11:52;;;;;;;59.93;36.97;;;;;;;;;;6216696;23;20169;-81
2024/03/08 06:14:18;;;;;;;56.83;35.63;;;;;;;;;;6213354;23;20165;-79
2024/03/08 06:16:46;;;;;;;57.83;37.10;;;;;;;;;;6186231;23;20233;-81
2024/03/08 06:19:15;;;;;;;59.10;38.17;;;;;;;;;;6213233;23;20169;-79
2024/03/08 06:21:51;;;;;;;59.33;38.10;;;;;;;;;;6213062;23;20165;-79
2024/03/08 06:24:19;;;;;;;64.33;38.17;;;;;;;;;;6213231;23;20166;-82
2024/03/08 06:26:47;;;;;;;57.53;36.33;;;;;;;;;;6213284;23;20277;-81
2024/03/08 06:29:18;;;;;;;62.37;37.00;;;;;;;;;;6213220;23;20158;-81
2024/03/08 06:31:45;;;;;;;64.27;38.43;;;;;;;;;;6212828;23;20165;-82
2024/03/08 06:34:15;;;;;;;63.97;37.50;;;;;;;;;;6213180;23;20168;-81
2024/03/08 06:36:47;;;;;;;62.73;37.87;;;;;;;;;;6213035;23;20160;-82
2024/03/08 06:39:15;;;;;;;65.60;37.83;;;;;;;;;;6213194;23;20193;-82
2024/03/08 06:41:44;;;;;;;62.07;38.23;;;;;;;;;;6212607;23;20169;-81
2024/03/08 06:44:11;;;;;;;62.97;38.47;;;;;;;;;;6212908;23;20232;-83
2024/03/08 06:46:38;;;;;;;79.53;59.40;;;;;;;;;;6213027;23;20162;-81
2024/03/08 06:49:07;;;;;;;66.43;39.73;;;;;;;;;;6212772;23;20181;-79
2024/03/08 06:51:34;;;;;;;64.93;39.57;;;;;;;;;;6186509;23;20269;-82
2024/03/08 06:54:08;;;;;;;66.23;39.10;;;;;;;;;;6161839;23;20174;-81
2024/03/08 06:56:36;;;;;;;65.53;40.10;;;;;;;;;;6212764;23;20172;-79
2024/03/08 06:59:03;;;;;;;67.27;38.20;;;;;;;;;;6161364;23;20197;-82
2024/03/08 07:01:36;;;;;;;65.53;38.97;;;;;;;;;;6212851;23;20169;-83
2024/03/08 07:04:05;;;;;;;66.80;38.63;;;;;;;;;;6213552;23;20192;-83
2024/03/08 07:06:33;;;;;;;65.00;38.63;;;;;;;;;;6213235;23;20173;-82
2024/03/08 07:09:01;;;;;;;65.17;37.17;;;;;;;;;;6187423;23;20197;-79
2024/03/08 07:11:28;;;;;;;65.97;37.50;;;;;;;;;;6186725;23;20248;-80
2024/03/08 07:13:55;;;;;;;65.43;37.17;;;;;;;;;;6206546;23;20312;-81
2024/03/08 07:16:23;;;;;;;65.30;37.87;;;;;;;;;;6210912;23;20196;-81
2024/03/08 07:18:52;;;;;;;69.97;38.57;;;;;;;;;;6207948;23;20198;-81
2024/03/08 07:21:19;;;;;;;62.17;37.10;;;;;;;;;;6210479;23;20248;-80
2024/03/08 07:23:53;;;;;;;65.03;38.63;;;;;;;;;;6210600;23;20674;-82
2024/03/08 07:26:20;;;;;;;65.40;38.37;;;;;;;;;;6210916;23;20181;-82
2024/03/08 07:28:49;;;;;;;65.33;38.67;;;;;;;;;;6208893;23;20189;-81
2024/03/08 07:33:44;;;;;;;72.00;39.73;;;;;;;;;;6208878;23;20196;-83
2024/03/08 07:36:12;;;;;;;71.73;41.43;;;;;;;;;;6212258;23;20166;-81
2024/03/08 07:38:39;;;;;;;69.57;40.40;;;;;;;;;;6212415;23;20719;-82
2024/03/08 07:41:09;;;;;;;69.20;41.03;;;;;;;;;;6211288;23;20177;-83
2024/03/08 07:43:39;;;;;;;69.27;40.70;;;;;;;;;;6212724;23;20208;-81
2024/03/08 07:46:06;;;;;;;72.17;40.87;;;;;;;;;;6210810;23;20176;-80
2024/03/08 07:48:33;;;;;;;69.47;39.63;;;;;;;;;;6209300;23;20193;-80
2024/03/08 07:51:01;;;;;;;75.07;39.60;;;;;;;;;;6212338;23;20170;-83
2024/03/08 07:53:28;;;;;;;62.37;37.83;;;;;;;;;;6210810;23;20173;-81
2024/03/08 07:55:55;;;;;;;64.87;38.90;;;;;;;;;;6213054;23;20353;-81
2024/03/08 07:58:25;;;;;;;59.30;36.70;;;;;;;;;;6211215;23;20201;-80
2024/03/08 08:00:53;;;;;;;67.40;40.10;;;;;;;;;;6210920;23;20197;-80
2024/03/08 08:03:20;;;;;;;65.63;38.23;;;;;;;;;;6210568;23;20166;-82
2024/03/08 08:05:49;;;;;;;65.37;37.93;;;;;;;;;;6212804;23;20181;-79
2024/03/08 08:08:16;;;;;;;73.83;44.47;;;;;;;;;;6212551;23;20185;-81
2024/03/08 08:10:43;;;;;;;66.53;39.73;;;;;;;;;;6212738;23;20165;-80
2024/03/08 08:13:11;;;;;;;63.70;38.17;;;;;;;;;;6228485;23;20271;-81
2024/03/08 08:15:38;;;;;;;71.47;43.97;;;;;;;;;;6242978;23;20189;-82
2024/03/08 08:18:05;;;;;;;66.90;41.50;;;;;;;;;;6215774;23;20165;-81
2024/03/08 08:20:33;;;;;;;63.87;38.23;;;;;;;;;;6242948;23;20616;-80
2024/03/08 08:23:00;;;;;;;62.57;37.83;;;;;;;;;;6242563;23;20188;-82
2024/03/08 08:25:27;;;;;;;65.60;37.50;;;;;;;;;;6242489;23;20180;-81
2024/03/08 08:27:55;;;;;;;64.43;36.93;;;;;;;;;;6242306;23;20184;-81
2024/03/08 08:30:23;;;;;;;61.30;36.10;;;;;;;;;;6216452;23;20228;-82
2024/03/08 08:32:50;;;;;;;59.93;35.90;;;;;;;;;;6215877;23;20196;-81
2024/03/08 08:35:19;;;;;;;57.60;36.23;;;;;;;;;;6242898;23;20168;-82
2024/03/08 08:37:47;;;;;;;56.60;35.57;;;;;;;;;;6241299;23;20177;-80
2024/03/08 08:40:14;;;;;;;56.67;34.70;;;;;;;;;;6242448;23;20161;-81
2024/03/08 08:42:42;;;;;;;53.67;34.33;;;;;;;;;;6242065;23;20165;-82
2024/03/08 08:45:10;;;;;;;55.57;35.03;;;;;;;;;;6215405;23;20256;-81
2024/03/08 08:47:47;;;;;;;58.00;34.67;;;;;;;;;;6242190;23;20156;-83
2024/03/08 08:50:15;;;;;;;52.27;34.73;;;;;;;;;;6242175;23;20165;-80
2024/03/08 08:52:45;;;;;;;57.53;34.33;;;;;;;;;;6241945;23;20160;-82
2024/03/08 08:55:17;;;;;;;127.20;39.10;;;;;;;;;;6215211;23;20227;-81
2024/03/08 08:57:45;;;;;;;57.67;34.77;;;;;;;;;;6242218;23;20169;-81
2024/03/08 09:00:14;;;;;;;56.90;36.67;;;;;;;;;;6242104;23;20173;-81
2024/03/08 09:02:42;;;;;;;64.93;39.07;;;;;;;;;;6242092;23;20248;-80
2024/03/08 09:05:09;;;;;;;72.00;43.70;;;;;;;;;;6215023;23;20164;-81
2024/03/08 09:07:37;;;;;;;58.13;37.67;;;;;;;;;;6241866;23;20161;-81
2024/03/08 09:10:09;;;;;;;58.63;35.53;;;;;;;;;;6215069;23;20177;-83
2024/03/08 09:12:39;;;;;;;56.57;35.23;;;;;;;;;;6215829;23;20631;-81
2024/03/08 09:15:08;;;;;;;56.07;35.10;;;;;;;;;;6215649;23;20199;-81
2024/03/08 09:17:43;;;;;;;53.33;34.10;;;;;;;;;;6242426;23;20165;-82
2024/03/08 09:20:10;;;;;;;53.10;33.60;;;;;;;;;;6216274;23;20180;-81
2024/03/08 09:22:40;;;;;;;55.33;33.37;;;;;;;;;;6212085;23;20248;-81
2024/03/08 09:25:09;;;;;;;55.60;33.90;;;;;;;;;;6212931;23;20169;-81
2024/03/08 09:27:36;;;;;;;54.00;34.20;;;;;;;;;;6215194;23;20850;-81
2024/03/08 09:30:06;;;;;;;52.30;33.50;;;;;;;;;;6241401;23;20214;-83
2024/03/08 09:32:34;;;;;;;50.90;32.80;;;;;;;;;;6241476;23;20189;-81
2024/03/08 09:35:01;;;;;;;48.30;30.67;;;;;;;;;;6214842;23;20177;-82
2024/03/08 09:37:28;;;;;;;49.30;30.57;;;;;;;;;;6241220;23;20179;-81
2024/03/08 09:39:55;;;;;;;46.17;30.00;;;;;;;;;;6240685;23;20184;-80
2024/03/08 09:42:21;;;;;;;48.47;31.40;;;;;;;;;;6210419;23;20174;-81
2024/03/08 09:44:49;;;;;;;47.97;30.80;;;;;;;;;;6239809;23;20161;-81
2024/03/08 09:47:16;;;;;;;43.60;28.30;;;;;;;;;;6241176;23;20167;-81
2024/03/08 09:49:43;;;;;;;45.47;28.57;;;;;;;;;;6241222;23;20296;-81
2024/03/08 09:52:10;;;;;;;43.37;28.47;;;;;;;;;;6241149;23;20161;-83
2024/03/08 09:54:37;;;;;;;48.93;29.97;;;;;;;;;;6241250;23;20221;-80
2024/03/08 09:57:04;;;;;;;45.70;29.87;;;;;;;;;;6214728;23;20245;-82
2024/03/08 10:02:02;;;;;;;42.70;27.70;;;;;;;;;;6241377;23;20236;-81
2024/03/08 10:04:30;;;;;;;44.53;28.40;;;;;;;;;;6241041;23;20184;-81
2024/03/08 10:06:58;;;;;;;47.80;29.30;;;;;;;;;;6241338;23;20186;-86
2024/03/08 10:09:27;;;;;;;48.27;29.03;;;;;;;;;;6240847;23;20183;-81
2024/03/08 10:11:56;;;;;;;47.43;29.27;;;;;;;;;;6241340;23;20162;-82
2024/03/08 10:14:26;;;;;;;46.43;29.43;;;;;;;;;;6240804;23;20389;-79
2024/03/08 10:16:53;;;;;;;43.93;28.80;;;;;;;;;;6214095;23;20191;-82
2024/03/08 10:19:20;;;;;;;41.67;28.67;;;;;;;;;;6213639;23;20247;-81
2024/03/08 10:21:52;;;;;;;41.07;27.40;;;;;;;;;;6240516;23;20639;-82
2024/03/08 10:24:19;;;;;;;41.33;27.13;;;;;;;;;;6240822;23;20171;-81
2024/03/08 10:26:47;;;;;;;41.83;27.67;;;;;;;;;;6215961;23;20213;-81
2024/03/08 10:29:15;;;;;;;39.23;26.27;;;;;;;;;;6242696;23;20176;-82
2024/03/08 10:31:46;;;;;;;36.67;23.77;;;;;;;;;;6243045;23;20184;-82
2024/03/08 10:34:12;;;;;;;33.13;22.13;;;;;;;;;;6216125;23;20232;-80
2024/03/08 10:36:40;;;;;;;23.83;18.60;;;;;;;;;;6242678;23;20257;-82
2024/03/08 10:39:12;;;;;;;23.83;17.93;;;;;;;;;;6215413;23;20197;-80
2024/03/08 10:41:41;;;;;;;24.00;18.03;;;;;;;;;;6216329;23;20191;-81
2024/03/08 10:44:27;;;;;;;22.50;17.33;;;;;;;;;;6242392;23;20165;-81
2024/03/08 10:47:06;;;;;;;22.30;16.80;;;;;;;;;;6242547;23;20211;-78
2024/03/08 10:49:38;;;;;;;21.33;15.93;;;;;;;;;;6242281;23;20220;-82
2024/03/08 10:52:09;;;;;;;21.67;16.40;;;;;;;;;;6242528;23;20241;-83
2024/03/08 10:54:39;;;;;;;21.50;17.17;;;;;;;;;;6242065;23;20176;-81
2024/03/08 10:57:12;;;;;;;22.40;17.30;;;;;;;;;;6242282;23;20169;-82
2024/03/08 10:59:39;;;;;;;23.57;16.43;;;;;;;;;;6241717;23;20244;-81
2024/03/08 11:02:06;;;;;;;19.53;15.63;;;;;;;;;;6242205;23;20223;-81
2024/03/08 11:04:36;;;;;;;20.17;15.70;;;;;;;;;;6214834;23;20517;-81
2024/03/08 11:07:06;;;;;;;21.37;15.63;;;;;;;;;;6241575;23;20157;-82
2024/03/08 11:09:35;;;;;;;21.07;16.50;;;;;;;;;;6241817;23;20698;-82
2024/03/08 11:12:21;;;;;;;20.27;15.77;;;;;;;;;;6190137;23;20195;-83
2024/03/08 11:14:49;;;;;;;19.90;15.20;;;;;;;;;;6241825;23;20592;-82
2024/03/08 11:17:38;;;;;;;20.13;15.77;;;;;;;;;;6214558;23;20227;-81
2024/03/08 11:20:15;;;;;;;20.20;15.47;;;;;;;;;;6213151;23;20495;-82
2024/03/08 11:22:53;;;;;;;20.63;15.60;;;;;;;;;;6242001;23;20168;-82
2024/03/08 11:25:52;;;;;;;20.13;15.77;;;;;;;;;;6241481;23;20248;-81
2024/03/08 11:28:21;;;;;;;18.67;15.13;;;;;;;;;;6218683;23;20326;-78
2024/03/08 11:30:58;;;;;;;20.30;15.73;;;;;;;;;;6214980;23;20169;-82
2024/03/08 11:33:29;;;;;;;19.90;15.80;;;;;;;;;;6241417;23;20169;-81
2024/03/08 11:36:11;;;;;;;19.90;16.00;;;;;;;;;;6213719;23;20200;-78
2024/03/08 11:38:48;;;;;;;20.10;15.60;;;;;;;;;;6189004;23;20751;-82
2024/03/08 11:41:17;;;;;;;17.97;15.67;;;;;;;;;;6214513;23;20164;-82
2024/03/08 11:43:48;;;;;;;19.17;15.30;;;;;;;;;;6212486;23;20185;-81
2024/03/08 11:46:17;;;;;;;15.97;13.63;;;;;;;;;;6241608;23;20165;-79
2024/03/08 11:48:47;;;;;;;18.13;14.83;;;;;;;;;;6241244;23;20226;-80
2024/03/08 11:51:18;;;;;;;18.87;14.90;;;;;;;;;;6214353;23;20195;-79
2024/03/08 11:53:46;;;;;;;16.07;13.83;;;;;;;;;;6241543;23;20161;-80
2024/03/08 11:56:14;;;;;;;17.33;14.73;;;;;;;;;;6215022;23;20173;-78
2024/03/08 11:58:41;;;;;;;19.37;14.73;;;;;;;;;;6214445;23;20173;-82
2024/03/08 12:01:12;;;;;;;18.53;14.37;;;;;;;;;;6215361;23;20170;-79
2024/03/08 12:03:42;;;;;;;17.43;14.37;;;;;;;;;;6213802;23;20754;-82
2024/03/08 12:06:15;;;;;;;17.07;14.30;;;;;;;;;;6240922;23;20169;-79
2024/03/08 12:08:42;;;;;;;17.03;13.77;;;;;;;;;;6241283;23;20196;-80
2024/03/08 12:11:10;;;;;;;16.90;14.57;;;;;;;;;;6189665;23;20204;-81
2024/03/08 12:13:39;;;;;;;16.53;14.03;;;;;;;;;;6241116;23;20693;-79
2024/03/08 12:16:09;;;;;;;15.27;13.53;;;;;;;;;;6214456;23;20165;-81
2024/03/08 12:18:37;;;;;;;14.30;12.77;;;;;;;;;;6241486;23;20172;-79
2024/03/08 12:21:08;;;;;;;15.70;12.67;;;;;;;;;;6215098;23;20231;-79
2024/03/08 12:23:37;;;;;;;15.40;13.27;;;;;;;;;;6241276;23;20165;-79
2024/03/08 12:26:13;;;;;;;15.13;13.20;;;;;;;;;;6241292;23;20184;-80
2024/03/08 12:28:41;;;;;;;16.67;13.30;;;;;;;;;;6214360;23;22115;-80
2024/03/08 12:31:12;;;;;;;18.00;14.13;;;;;;;;;;6188908;23;20173;-82
2024/03/08 12:33:52;;;;;;;16.93;14.73;;;;;;;;;;6214543;23;20161;-80
2024/03/08 12:36:23;;;;;;;15.50;13.87;;;;;;;;;;6214305;23;20515;-80
2024/03/08 12:38:51;;;;;;;15.93;14.07;;;;;;;;;;6241063;23;20188;-79
2024/03/08 12:41:19;;;;;;;19.53;15.30;;;;;;;;;;6189851;23;20247;-80
2024/03/08 12:43:51;;;;;;;15.87;14.00;;;;;;;;;;6213948;23;20519;-80
2024/03/08 12:46:26;;;;;;;14.27;12.77;;;;;;;;;;6241223;23;20165;-79
2024/03/08 12:48:53;;;;;;;13.50;12.10;;;;;;;;;;6239738;23;20165;-80
2024/03/08 12:51:21;;;;;;;13.27;11.87;;;;;;;;;;6212136;23;20169;-80
2024/03/08 12:53:48;;;;;;;15.10;12.87;;;;;;;;;;6211936;23;20173;-79
2024/03/08 12:56:28;;;;;;;16.47;13.63;;;;;;;;;;6212165;23;20548;-82
2024/03/08 12:58:56;;;;;;;18.20;13.33;;;;;;;;;;6212539;23;20173;-79
2024/03/08 13:01:23;;;;;;;15.97;13.13;;;;;;;;;;6239273;23;20243;-80
2024/03/08 13:03:51;;;;;;;15.67;13.17;;;;;;;;;;6239539;23;20236;-78
2024/03/08 13:06:21;;;;;;;15.37;13.47;;;;;;;;;;6240746;23;20185;-79
2024/03/08 13:08:49;;;;;;;16.00;13.53;;;;;;;;;;6214412;23;20619;-80
2024/03/08 13:11:17;;;;;;;16.03;13.73;;;;;;;;;;6240925;23;20165;-79
2024/03/08 13:13:44;;;;;;;14.63;13.03;;;;;;;;;;6240265;23;20225;-79
2024/03/08 13:16:14;;;;;;;14.37;12.40;;;;;;;;;;6239288;23;20168;-80
2024/03/08 13:18:44;;;;;;;17.20;13.60;;;;;;;;;;6214004;23;20169;-79
2024/03/08 13:21:13;;;;;;;15.80;13.80;;;;;;;;;;6241035;23;20160;-80
2024/03/08 13:23:46;;;;;;;18.20;13.90;;;;;;;;;;6213441;23;20751;-79
2024/03/08 13:26:14;;;;;;;15.47;13.73;;;;;;;;;;6213621;23;20643;-80
2024/03/08 13:28:45;;;;;;;14.60;12.70;;;;;;;;;;6240770;23;20164;-81
2024/03/08 13:31:14;;;;;;;15.73;13.00;;;;;;;;;;6239313;23;20185;-79
2024/03/08 13:33:57;;;;;;;16.57;13.57;;;;;;;;;;6241121;23;20192;-81
2024/03/08 13:36:32;;;;;;;16.00;13.00;;;;;;;;;;6214152;23;20623;-79
2024/03/08 13:39:00;;;;;;;16.47;13.30;;;;;;;;;;6213793;23;20186;-82
2024/03/08 13:41:27;;;;;;;16.67;12.93;;;;;;;;;;6240931;23;20248;-79
2024/03/08 13:43:59;;;;;;;13.97;12.43;;;;;;;;;;6240801;23;20153;-79
2024/03/08 13:46:27;;;;;;;14.40;12.00;;;;;;;;;;6240837;23;20234;-78
2024/03/08 13:49:05;;;;;;;12.97;11.63;;;;;;;;;;6240686;23;20165;-80
2024/03/08 13:51:37;;;;;;;13.90;12.40;;;;;;;;;;6240833;23;20169;-80
2024/03/08 13:54:09;;;;;;;14.57;11.60;;;;;;;;;;6213753;23;20238;-80
2024/03/08 13:56:37;;;;;;;13.40;12.00;;;;;;;;;;6240899;23;20171;-79
2024/03/08 13:59:04;;;;;;;13.10;11.70;;;;;;;;;;6240510;23;20165;-80
2024/03/08 14:01:35;;;;;;;13.50;11.47;;;;;;;;;;6216038;23;20173;-81
2024/03/08 14:04:03;;;;;;;13.87;12.10;;;;;;;;;;6242383;23;20169;-80
2024/03/08 14:06:32;;;;;;;13.47;11.77;;;;;;;;;;6242604;23;20222;-82
2024/03/08 14:08:59;;;;;;;14.77;12.40;;;;;;;;;;6242438;23;20256;-82
2024/03/08 14:11:27;;;;;;;13.77;12.27;;;;;;;;;;6215763;23;20165;-78
2024/03/08 14:13:55;;;;;;;12.20;10.80;;;;;;;;;;6242274;23;20193;-81
2024/03/08 14:16:22;;;;;;;12.07;10.77;;;;;;;;;;6242564;23;20187;-80
2024/03/08 14:18:53;;;;;;;13.57;10.93;;;;;;;;;;6215966;23;20242;-79
2024/03/08 14:21:22;;;;;;;12.63;11.07;;;;;;;;;;6215689;23;20184;-85
2024/03/08 14:23:52;;;;;;;12.43;10.57;;;;;;;;;;6216023;23;20173;-81
2024/03/08 14:26:20;;;;;;;11.97;10.53;;;;;;;;;;6242568;23;20627;-80
2024/03/08 14:28:54;;;;;;;12.10;10.77;;;;;;;;;;6243085;23;20169;-80
2024/03/08 14:31:25;;;;;;;11.57;10.37;;;;;;;;;;6215908;23;20184;-80